KAIT

Details ICAO KAIT
Name AITKIN MUNI STEVE KURTZ FLD
Region United States
Timezone America/Chicago (UTC-6.0)
Plans Departing 0
Arriving 0
Stats Elevation 1,205 ft / 367 m (AMSL)
Location 46.548026° -93.677605°
Runways 2
Magnetic Variation 0.376° E
Sunrise 2017-12-17 13:54:59 UTC / 2017-12-17 07:54:59 Local
Sunset 2017-12-17 22:29:40 UTC / 2017-12-17 16:29:40 Local
Advertisement - Login to hide

Runways

ID Width Length Bearing (true) Bearing (mag) Surface Threshold Offset Overrun Length
08 150 ft / 46 m 3,391 ft / 1,034 m 87.99° 87.61° Grass 0 ft / 0 m 0 ft / 0 m
16 75 ft / 23 m 4,020 ft / 1,225 m 164.49° 164.11° Asphalt 0 ft / 0 m 0 ft / 0 m
26 150 ft / 46 m 3,391 ft / 1,034 m 268.00° 267.62° Grass 0 ft / 0 m 0 ft / 0 m
34 75 ft / 23 m 4,020 ft / 1,225 m 344.49° 344.11° Asphalt 0 ft / 0 m 0 ft / 0 m

Map

Weather


0- 5 10 15 20 25 30 35+ Temperature / ° C

Clouds and Precipitation
Forecast for 2017-12-18 06:00 UTC. Updated 28 minutes ago

Ground ~20,000 ft ~40,000 ft Winds

METAR

KAIT 180535Z AUTO 19004KT 10SM OVC018 M05/M07 A2986 RMK AO2

TAF

Not found

Frequencies

Recorded 118.67 MHz AWOS 3
Approach 118.05 MHz MINNEAPOLIS APP/DEP
Unicom 123.05 MHz UNICOM/CTAF
Warning: Do not use this data for real-world aviation or navigation. No guarantee of current accuracy is given.